Time;durP1;ratioP1;P1;durP2;ratioP2;P2;SDS_P1;SDS_P2;PMS_P1;PMS_P2;Temp;Humidity;BMP_temperature;BMP_pressure;BME280_temperature;BME280_humidity;BME280_pressure;Samples;Min_cycle;Max_cycle;Signal;HPM_P1;HPM_P2
2022/05/29 00:03:59;;;;;;;6.00;1.40;;;22.70;57.90;;;;;;217898;1290;22827;-46
2022/05/29 00:09:03;;;;;;;4.50;1.50;;;22.60;57.30;;;;;;216015;1290;24250;-48
2022/05/29 00:14:07;;;;;;;4.40;1.60;;;22.70;57.70;;;;;;215846;1290;22793;-48
2022/05/29 00:19:11;;;;;;;4.50;1.50;;;22.60;57.20;;;;;;215927;1290;22572;-50
2022/05/29 00:24:15;;;;;;;4.80;1.30;;;22.60;57.30;;;;;;216087;1290;24280;-47
2022/05/29 00:29:22;;;;;;;4.70;1.10;;;22.60;57.50;;;;;;216150;1290;22589;-48
2022/05/29 00:34:29;;;;;;;2.90;0.90;;;22.50;57.40;;;;;;216365;1290;24431;-46
2022/05/29 00:39:40;;;;;;;4.00;1.30;;;22.50;57.40;;;;;;216398;1290;24298;-47
2022/05/29 00:44:51;;;;;;;4.30;1.50;;;22.50;57.40;;;;;;216077;1290;25660;-47
2022/05/29 00:49:55;;;;;;;6.00;1.70;;;22.50;57.80;;;;;;216172;1290;22588;-48
2022/05/29 00:55:03;;;;;;;6.70;2.50;;;22.40;57.50;;;;;;216055;1290;22588;-48
2022/05/29 01:00:17;;;;;;;4.10;1.40;;;22.40;57.40;;;;;;217383;1290;22523;-48
2022/05/29 01:05:23;;;;;;;4.00;1.30;;;22.40;57.40;;;;;;216019;1290;25309;-50
2022/05/29 01:10:40;;;;;;;3.10;1.20;;;22.40;57.30;;;;;;216081;1290;22574;-46
2022/05/29 01:16:02;;;;;;;9.60;1.80;;;22.40;57.30;;;;;;216312;1290;25358;-48
2022/05/29 01:21:33;;;;;;;7.90;1.90;;;22.40;57.60;;;;;;216039;1290;25346;-47
2022/05/29 01:27:02;;;;;;;2.60;1.20;;;22.40;57.30;;;;;;216157;1291;22730;-46
2022/05/29 01:32:15;;;;;;;3.60;1.10;;;22.30;57.30;;;;;;216085;1290;25318;-49
2022/05/29 01:37:36;;;;;;;3.00;1.10;;;22.30;57.60;;;;;;216495;1291;23084;-46
2022/05/29 01:43:01;;;;;;;3.10;1.30;;;22.40;59.90;;;;;;216708;1291;24446;-47
2022/05/29 01:48:12;;;;;;;4.90;1.10;;;22.40;59.90;;;;;;216144;1290;26531;-46
2022/05/29 01:53:22;;;;;;;;;;;22.40;59.60;;;;;;216125;1291;22569;-48
2022/05/29 01:58:37;;;;;;;7.70;1.80;;;22.40;59.60;;;;;;216366;1291;25240;-46
2022/05/29 02:03:47;;;;;;;5.10;1.20;;;22.40;59.50;;;;;;216195;1290;24307;-52
2022/05/29 02:09:02;;;;;;;3.20;1.10;;;22.40;59.50;;;;;;216573;1290;25416;-49
2022/05/29 02:14:18;;;;;;;5.60;1.70;;;22.40;59.90;;;;;;216355;1290;22596;-48
2022/05/29 02:19:49;;;;;;;4.80;1.40;;;22.40;59.60;;;;;;216682;1290;25257;-47
2022/05/29 02:25:11;;;;;;;3.20;1.30;;;22.30;59.40;;;;;;216239;1290;24289;-48
2022/05/29 02:30:15;;;;;;;3.60;1.30;;;22.40;59.40;;;;;;216355;1290;22583;-50
2022/05/29 02:35:21;;;;;;;3.80;1.20;;;22.30;59.40;;;;;;216012;1290;22580;-46
2022/05/29 02:40:56;;;;;;;7.90;1.90;;;22.30;59.20;;;;;;216144;1290;22596;-48
2022/05/29 02:46:08;;;;;;;3.50;1.40;;;22.30;59.70;;;;;;215737;1293;24215;-47
2022/05/29 02:51:24;;;;;;;2.90;1.30;;;22.30;59.30;;;;;;216102;1290;24365;-48
2022/05/29 02:56:28;;;;;;;4.60;1.50;;;22.30;59.40;;;;;;216264;1290;23916;-46
2022/05/29 03:02:01;;;;;;;2.30;1.00;;;22.20;58.90;;;;;;216199;1290;26638;-48
2022/05/29 03:07:24;;;;;;;4.50;1.20;;;22.30;59.30;;;;;;216347;1290;22735;-47
2022/05/29 03:12:51;;;;;;;3.30;1.20;;;22.20;59.20;;;;;;216265;1291;24303;-53
2022/05/29 03:18:18;;;;;;;2.90;1.30;;;22.20;59.20;;;;;;216391;1290;22666;-47
2022/05/29 03:23:34;;;;;;;2.60;1.20;;;22.30;59.70;;;;;;216271;1290;22583;-47
2022/05/29 03:28:44;;;;;;;2.60;1.10;;;22.20;59.10;;;;;;216409;1290;22802;-48
2022/05/29 03:33:49;;;;;;;5.10;1.30;;;22.20;59.30;;;;;;216151;1293;22686;-47
2022/05/29 03:38:53;;;;;;;4.10;1.40;;;22.20;59.30;;;;;;216293;1290;25368;-55
2022/05/29 03:43:56;;;;;;;3.40;1.20;;;22.20;59.30;;;;;;216494;1290;24458;-47
2022/05/29 03:49:00;;;;;;;3.10;1.00;;;22.20;58.90;;;;;;216387;1290;24292;-49
2022/05/29 03:54:05;;;;;;;3.20;1.30;;;22.20;59.40;;;;;;216135;1290;24262;-48
2022/05/29 03:59:08;;;;;;;3.10;1.20;;;22.20;59.10;;;;;;216243;1291;25593;-48
2022/05/29 04:04:12;;;;;;;2.70;1.10;;;22.20;59.10;;;;;;216273;1290;23979;-47
2022/05/29 04:14:40;;;;;;;4.90;1.00;;;22.10;59.00;;;;;;216568;1290;22699;-45
2022/05/29 04:19:44;;;;;;;2.70;1.00;;;22.10;59.40;;;;;;216224;1290;25397;-47
2022/05/29 04:24:48;;;;;;;2.70;1.20;;;22.10;59.00;;;;;;216321;1290;22720;-49
2022/05/29 04:29:56;;;;;;;2.60;1.00;;;22.10;59.00;;;;;;216419;1290;22632;-48
2022/05/29 04:35:11;;;;;;;5.30;1.20;;;22.10;59.10;;;;;;215903;1290;24430;-49
2022/05/29 04:40:16;;;;;;;4.10;1.30;;;22.10;59.70;;;;;;216315;1290;22586;-48
2022/05/29 04:45:19;;;;;;;3.50;1.40;;;22.10;59.30;;;;;;216698;1290;22583;-46
2022/05/29 04:50:23;;;;;;;2.70;1.20;;;22.10;59.20;;;;;;216422;1291;25283;-50
2022/05/29 04:55:27;;;;;;;2.50;1.00;;;22.10;59.10;;;;;;216246;1291;24432;-53
2022/05/29 05:00:36;;;;;;;2.30;1.10;;;22.10;59.10;;;;;;216796;1290;25648;-49
2022/05/29 05:05:52;;;;;;;3.90;1.10;;;22.10;59.10;;;;;;216482;1290;23932;-48
2022/05/29 05:10:55;;;;;;;1.50;0.80;;;22.10;59.50;;;;;;216261;1290;22585;-49
2022/05/29 05:16:01;;;;;;;2.40;1.00;;;22.10;59.20;;;;;;216442;1290;24364;-48
2022/05/29 05:21:07;;;;;;;2.60;1.00;;;22.10;59.30;;;;;;216347;1290;22731;-48
2022/05/29 05:26:12;;;;;;;5.50;1.30;;;22.10;59.20;;;;;;216270;1293;26516;-46
2022/05/29 05:31:16;;;;;;;2.60;1.00;;;22.10;58.90;;;;;;216194;1290;22662;-47
2022/05/29 05:36:20;;;;;;;3.90;1.20;;;22.10;59.30;;;;;;215999;1293;25914;-49
2022/05/29 05:41:24;;;;;;;1.80;0.90;;;22.10;59.10;;;;;;216366;1290;22569;-50
2022/05/29 05:46:31;;;;;;;4.90;1.50;;;22.10;59.30;;;;;;216269;1290;22626;-48
2022/05/29 05:51:38;;;;;;;4.20;1.60;;;22.10;59.10;;;;;;216285;1290;22776;-49
2022/05/29 05:56:43;;;;;;;5.60;1.10;;;22.10;59.10;;;;;;215676;1293;22823;-51
2022/05/29 06:01:46;;;;;;;5.40;1.40;;;22.20;59.20;;;;;;216135;1290;22588;-47
2022/05/29 06:06:53;;;;;;;2.60;1.10;;;22.10;59.10;;;;;;216327;1290;23023;-46
2022/05/29 06:11:57;;;;;;;2.50;0.90;;;22.20;59.10;;;;;;216283;1290;22605;-50
2022/05/29 06:17:04;;;;;;;1.90;1.00;;;22.10;59.00;;;;;;216198;1291;22596;-48
2022/05/29 06:22:12;;;;;;;2.90;1.00;;;22.10;58.90;;;;;;216558;1290;22581;-47
2022/05/29 06:27:43;;;;;;;1.90;1.00;;;22.20;59.00;;;;;;216447;1290;25267;-47
2022/05/29 06:32:53;;;;;;;2.50;0.90;;;22.20;58.90;;;;;;216148;1291;26561;-46
2022/05/29 06:38:03;;;;;;;3.40;1.10;;;22.20;58.90;;;;;;216133;1290;25264;-47
2022/05/29 06:43:11;;;;;;;3.40;1.10;;;22.20;58.90;;;;;;216181;1290;24572;-49
2022/05/29 06:48:25;;;;;;;3.70;0.90;;;22.20;58.90;;;;;;216165;1290;24243;-49
2022/05/29 06:53:40;;;;;;;2.60;1.10;;;22.20;59.30;;;;;;216179;1290;25748;-49
2022/05/29 06:58:55;;;;;;;2.10;1.00;;;22.20;59.00;;;;;;216236;1290;22572;-47
2022/05/29 07:09:45;;;;;;;3.00;1.20;;;22.30;58.60;;;;;;215894;1291;23218;-48
2022/05/29 07:15:16;;;;;;;3.00;1.20;;;22.30;59.10;;;;;;216075;1290;22691;-47
2022/05/29 07:20:26;;;;;;;3.80;1.30;;;22.30;59.50;;;;;;215807;1290;376109;-50
2022/05/29 07:25:40;;;;;;;4.20;1.40;;;22.30;59.30;;;;;;216092;1291;22672;-49
2022/05/29 07:30:49;;;;;;;4.60;1.20;;;22.30;59.30;;;;;;216201;1291;24260;-49
2022/05/29 07:35:56;;;;;;;;;;;22.40;59.30;;;;;;215950;1293;23593;-49
2022/05/29 07:41:00;;;;;;;6.00;1.60;;;22.40;59.20;;;;;;215918;1290;22638;-49
2022/05/29 07:46:13;;;;;;;3.40;1.20;;;22.40;59.10;;;;;;215992;1290;24313;-50
2022/05/29 07:51:32;;;;;;;3.30;0.80;;;22.40;58.80;;;;;;215833;1293;25450;-54
2022/05/29 07:57:11;;;;;;;1.90;0.90;;;22.40;59.00;;;;;;215686;1293;23270;-50
2022/05/29 08:02:46;;;;;;;5.00;1.10;;;22.40;59.00;;;;;;215865;1293;24326;-49
2022/05/29 08:08:24;;;;;;;3.80;1.10;;;22.40;58.80;;;;;;215852;1290;22723;-53
2022/05/29 08:13:47;;;;;;;2.60;1.00;;;22.50;58.90;;;;;;216033;1290;25355;-50
2022/05/29 08:19:07;;;;;;;4.40;1.40;;;22.50;59.10;;;;;;215769;1293;22636;-48
2022/05/29 08:36:11;;;;;;;4.40;1.40;;;22.50;58.50;;;;;;216061;1290;24555;-47
2022/05/29 08:41:53;;;;;;;6.70;1.00;;;22.60;58.40;;;;;;216080;1293;22570;-49
2022/05/29 08:47:06;;;;;;;4.00;1.20;;;22.60;58.80;;;;;;216588;1290;24481;-47
2022/05/29 08:52:37;;;;;;;4.10;1.20;;;22.70;60.00;;;;;;216196;1291;22592;-52
2022/05/29 08:58:07;;;;;;;4.60;1.10;;;22.70;60.50;;;;;;216265;1290;25283;-51
2022/05/29 09:03:53;;;;;;;5.00;1.10;;;22.80;60.20;;;;;;216120;1290;24310;-48
2022/05/29 09:09:12;;;;;;;2.50;1.00;;;22.80;60.70;;;;;;216092;1290;25530;-52
2022/05/29 09:14:33;;;;;;;2.90;1.20;;;22.80;60.60;;;;;;216268;1290;25409;-49
2022/05/29 09:19:50;;;;;;;6.00;1.60;;;22.80;60.80;;;;;;216180;1290;24416;-50
2022/05/29 09:25:15;;;;;;;4.10;1.20;;;22.90;60.10;;;;;;216223;1290;24281;-50
2022/05/29 09:30:24;;;;;;;7.30;1.40;;;22.90;59.20;;;;;;215725;1293;23872;-53
2022/05/29 09:35:52;;;;;;;10.30;1.30;;;22.90;59.90;;;;;;215995;1290;22640;-51
2022/05/29 09:41:13;;;;;;;17.60;1.50;;;23.00;59.30;;;;;;216094;1290;24392;-48
2022/05/29 09:46:22;;;;;;;15.60;1.80;;;23.00;59.30;;;;;;215965;1290;25352;-54
2022/05/29 09:51:31;;;;;;;17.20;1.70;;;23.00;59.10;;;;;;216125;1290;24356;-51
2022/05/29 09:56:37;;;;;;;6.00;1.20;;;23.10;58.00;;;;;;216007;1290;25534;-59
2022/05/29 10:01:46;;;;;;;9.20;1.80;;;23.10;57.80;;;;;;215832;1291;22726;-53
2022/05/29 10:07:01;;;;;;;9.40;1.70;;;23.20;58.50;;;;;;215965;1291;22573;-54
2022/05/29 10:12:18;;;;;;;5.60;1.40;;;23.20;57.50;;;;;;216279;1290;24249;-54
2022/05/29 10:17:28;;;;;;;4.10;1.40;;;23.10;57.50;;;;;;216064;1291;27450;-57
2022/05/29 10:22:41;;;;;;;9.00;1.90;;;23.20;57.70;;;;;;215774;1290;24210;-55
2022/05/29 10:27:58;;;;;;;8.10;1.30;;;23.20;58.00;;;;;;216003;1290;25360;-52
2022/05/29 10:33:29;;;;;;;6.70;1.20;;;23.20;57.10;;;;;;216212;1290;24402;-54
2022/05/29 10:39:41;;;;;;;6.20;1.30;;;23.20;56.70;;;;;;216175;1290;22658;-53
2022/05/29 10:44:49;;;;;;;7.00;1.80;;;23.30;56.10;;;;;;216150;1290;24453;-51
2022/05/29 10:51:01;;;;;;;17.10;2.90;;;23.30;56.10;;;;;;216006;1290;25256;-53
2022/05/29 10:56:55;;;;;;;;;;;;;;;;;;;;;
2022/05/29 11:08:32;;;;;;;7.70;1.90;;;23.40;55.40;;;;;;216084;1290;22660;-47
2022/05/29 11:13:55;;;;;;;7.10;1.50;;;23.30;55.60;;;;;;216008;1290;24294;-49
2022/05/29 11:19:39;;;;;;;11.40;2.20;;;23.30;55.30;;;;;;216085;1290;22661;-53
2022/05/29 11:25:11;;;;;;;17.80;2.70;;;23.30;55.10;;;;;;216465;1290;22645;-50
2022/05/29 11:30:21;;;;;;;10.90;2.10;;;23.40;54.90;;;;;;216346;1290;22706;-51
2022/05/29 11:36:19;;;;;;;9.60;1.70;;;23.30;54.70;;;;;;216101;1290;25403;-50
2022/05/29 11:41:47;;;;;;;7.30;1.90;;;23.30;54.60;;;;;;215587;1292;24299;-50
2022/05/29 11:52:51;;;;;;;7.70;2.00;;;23.30;53.80;;;;;;216194;1290;22722;-52
2022/05/29 11:58:07;;;;;;;7.90;2.20;;;23.30;54.00;;;;;;216257;1290;22634;-50
2022/05/29 12:03:24;;;;;;;18.00;4.70;;;23.30;53.50;;;;;;216179;1290;25506;-50
2022/05/29 12:08:54;;;;;;;10.30;2.90;;;23.30;54.60;;;;;;216292;1291;24337;-47
2022/05/29 12:14:04;;;;;;;13.40;3.80;;;23.40;56.00;;;;;;216356;1290;25343;-52
2022/05/29 12:19:19;;;;;;;12.10;3.40;;;23.50;55.00;;;;;;216487;1290;23557;-48
2022/05/29 12:24:34;;;;;;;12.70;3.10;;;23.40;55.60;;;;;;216130;1290;24166;-49
2022/05/29 12:29:48;;;;;;;12.30;3.10;;;23.50;54.90;;;;;;216095;1290;22580;-49
2022/05/29 12:34:59;;;;;;;9.50;2.90;;;23.50;53.90;;;;;;216102;1290;22559;-51
2022/05/29 12:40:12;;;;;;;8.40;2.60;;;23.50;53.60;;;;;;216204;1291;22655;-51
2022/05/29 12:45:37;;;;;;;9.20;2.30;;;23.50;53.50;;;;;;216335;1290;22566;-52
2022/05/29 12:51:09;;;;;;;11.40;3.00;;;23.50;53.30;;;;;;216211;1290;22689;-52
2022/05/29 12:56:42;;;;;;;10.70;2.60;;;23.40;53.20;;;;;;216602;1290;22613;-52
2022/05/29 13:02:00;;;;;;;7.30;2.20;;;23.40;52.70;;;;;;216267;1290;22627;-50
2022/05/29 13:07:05;;;;;;;9.60;2.30;;;23.40;52.70;;;;;;216205;1289;25368;-48
2022/05/29 13:12:16;;;;;;;7.80;2.60;;;23.40;52.50;;;;;;216147;1291;22708;-49
2022/05/29 13:17:26;;;;;;;6.50;1.90;;;23.40;52.20;;;;;;216269;1290;22697;-48
2022/05/29 13:22:55;;;;;;;6.20;2.10;;;23.50;52.30;;;;;;216186;1290;26343;-48
2022/05/29 13:28:26;;;;;;;7.60;2.20;;;23.50;52.10;;;;;;216222;1290;22628;-54
2022/05/29 13:33:33;;;;;;;6.20;2.20;;;23.40;51.90;;;;;;216051;1290;22661;-50
2022/05/29 13:38:45;;;;;;;6.80;2.30;;;23.40;51.60;;;;;;216072;1291;22923;-49
2022/05/29 13:43:49;;;;;;;6.10;2.00;;;23.40;51.50;;;;;;215630;1293;26526;-48
2022/05/29 13:48:56;;;;;;;6.10;1.80;;;23.40;51.80;;;;;;216312;1290;22633;-49
2022/05/29 13:54:03;;;;;;;5.50;1.80;;;23.40;51.40;;;;;;216143;1290;22579;-51
2022/05/29 14:04:55;;;;;;;12.30;2.70;;;23.40;51.50;;;;;;216254;1290;22563;-48
2022/05/29 14:10:20;;;;;;;5.30;2.10;;;23.40;51.00;;;;;;216165;1290;22648;-50
2022/05/29 14:16:04;;;;;;;4.60;1.50;;;23.40;51.00;;;;;;216038;1293;25503;-50
2022/05/29 14:21:35;;;;;;;5.90;2.10;;;23.30;51.30;;;;;;216067;1291;24478;-49
2022/05/29 14:26:47;;;;;;;7.20;2.20;;;23.30;50.90;;;;;;216159;1291;22583;-52
2022/05/29 14:31:59;;;;;;;6.40;2.10;;;23.30;50.80;;;;;;216159;1290;25274;-54
2022/05/29 14:37:27;;;;;;;5.50;2.00;;;23.40;50.70;;;;;;216078;1291;23981;-50
2022/05/29 14:42:45;;;;;;;6.00;2.00;;;23.30;51.00;;;;;;216066;1294;22640;-49
2022/05/29 14:47:58;;;;;;;4.90;1.80;;;23.30;50.50;;;;;;216508;1290;22558;-51
2022/05/29 14:53:11;;;;;;;4.10;1.60;;;23.30;50.20;;;;;;216218;1291;23205;-47
2022/05/29 14:58:32;;;;;;;6.60;1.50;;;23.30;50.90;;;;;;216218;1290;24890;-48
2022/05/29 15:03:46;;;;;;;8.50;2.50;;;23.30;50.10;;;;;;216082;1293;22614;-51
2022/05/29 15:14:22;;;;;;;3.40;1.40;;;23.30;50.10;;;;;;216204;1290;25470;-51
2022/05/29 15:25:19;;;;;;;12.30;2.30;;;23.30;50.00;;;;;;215859;1290;22706;-49
2022/05/29 15:30:27;;;;;;;5.00;1.40;;;23.30;49.90;;;;;;216410;1290;23224;-47
2022/05/29 15:35:41;;;;;;;4.90;1.70;;;23.30;49.80;;;;;;216093;1290;22610;-50
2022/05/29 15:41:02;;;;;;;4.80;1.80;;;23.20;49.70;;;;;;216215;1290;22591;-48
2022/05/29 15:46:13;;;;;;;5.90;2.10;;;23.30;49.80;;;;;;215987;1294;22569;-50
2022/05/29 15:51:25;;;;;;;2.90;1.30;;;23.20;49.60;;;;;;216146;1291;24577;-52
2022/05/29 15:56:45;;;;;;;6.10;2.00;;;23.20;49.50;;;;;;216197;1290;25540;-50
2022/05/29 16:02:14;;;;;;;6.80;2.00;;;23.20;49.50;;;;;;216110;1290;22782;-48
2022/05/29 16:07:39;;;;;;;3.90;1.80;;;23.20;49.30;;;;;;215814;1291;24303;-49
2022/05/29 16:12:50;;;;;;;5.80;1.80;;;23.20;49.30;;;;;;216144;1290;24363;-50
2022/05/29 16:18:00;;;;;;;7.40;2.10;;;23.20;49.30;;;;;;216166;1290;22619;-49
2022/05/29 16:23:13;;;;;;;3.20;1.50;;;23.20;49.10;;;;;;216133;1290;24960;-52
2022/05/29 16:28:31;;;;;;;5.80;1.70;;;23.20;49.20;;;;;;216108;1290;24678;-49
2022/05/29 16:33:45;;;;;;;6.20;1.80;;;23.20;49.20;;;;;;216066;1294;22787;-49
2022/05/29 16:50:14;;;;;;;3.10;1.30;;;23.10;49.10;;;;;;215717;1290;22673;-49
2022/05/29 16:55:32;;;;;;;3.70;1.60;;;23.10;49.20;;;;;;216520;1290;23985;-50
2022/05/29 17:01:27;;;;;;;2.90;1.20;;;23.10;49.40;;;;;;216172;1291;25454;-49
2022/05/29 17:06:53;;;;;;;5.00;1.90;;;23.10;48.80;;;;;;215986;1290;23343;-54
2022/05/29 17:12:05;;;;;;;3.40;1.50;;;23.10;48.90;;;;;;216445;1289;22683;-48
2022/05/29 17:17:16;;;;;;;4.80;2.10;;;23.10;49.00;;;;;;216068;1290;24462;-53
2022/05/29 17:22:27;;;;;;;3.70;1.50;;;23.10;49.00;;;;;;216144;1290;24371;-49
2022/05/29 17:28:05;;;;;;;5.50;1.90;;;23.00;48.90;;;;;;216423;1290;24115;-52
2022/05/29 17:33:21;;;;;;;7.20;2.00;;;23.00;48.80;;;;;;215993;1294;23012;-50
2022/05/29 17:38:47;;;;;;;5.20;1.70;;;23.00;49.00;;;;;;216110;1291;25533;-48
2022/05/29 17:43:53;;;;;;;6.80;1.80;;;23.00;49.10;;;;;;216050;1291;25620;-50
2022/05/29 17:49:07;;;;;;;10.50;1.60;;;23.00;48.70;;;;;;216535;1291;22717;-49
2022/05/29 17:54:40;;;;;;;7.50;1.50;;;23.10;48.50;;;;;;216457;1290;22821;-48
2022/05/29 17:59:50;;;;;;;10.10;1.80;;;23.10;48.40;;;;;;216203;1290;22579;-50
2022/05/29 18:04:56;;;;;;;8.90;1.70;;;23.20;49.20;;;;;;216082;1290;24328;-49
2022/05/29 18:10:05;;;;;;;7.10;1.50;;;23.20;49.20;;;;;;216186;1290;24420;-50
2022/05/29 18:15:11;;;;;;;8.10;2.00;;;23.30;48.80;;;;;;215926;1293;22757;-49
2022/05/29 18:20:19;;;;;;;4.80;1.50;;;23.20;50.70;;;;;;216204;1290;23588;-48
2022/05/29 18:25:26;;;;;;;9.70;1.70;;;23.30;51.00;;;;;;215935;1290;22566;-49
2022/05/29 18:30:31;;;;;;;19.50;3.10;;;23.30;51.00;;;;;;216122;1291;22557;-50
2022/05/29 18:35:35;;;;;;;23.70;2.30;;;23.30;51.90;;;;;;216172;1290;22638;-51
2022/05/29 18:40:41;;;;;;;10.60;2.10;;;23.30;52.40;;;;;;216064;1293;22657;-60
2022/05/29 18:45:47;;;;;;;10.50;2.10;;;23.30;52.40;;;;;;216054;1290;24461;-60
2022/05/29 18:50:55;;;;;;;9.80;2.10;;;23.20;53.30;;;;;;216000;1290;24344;-58
2022/05/29 18:56:04;;;;;;;14.40;2.50;;;23.20;51.40;;;;;;216031;1290;22650;-58
2022/05/29 19:01:13;;;;;;;11.10;2.40;;;23.20;51.80;;;;;;216202;1290;23684;-60
2022/05/29 19:06:24;;;;;;;10.10;1.90;;;23.20;51.60;;;;;;216130;1290;25593;-59
2022/05/29 19:11:31;;;;;;;16.00;3.20;;;23.20;52.00;;;;;;216195;1290;23881;-60
2022/05/29 19:16:36;;;;;;;13.60;2.40;;;23.20;51.80;;;;;;216140;1294;25753;-60
2022/05/29 19:21:42;;;;;;;11.30;2.30;;;23.20;51.40;;;;;;215904;1290;349040;-59
2022/05/29 19:26:55;;;;;;;7.20;2.30;;;23.30;52.10;;;;;;216061;1294;22738;-60
2022/05/29 19:32:04;;;;;;;9.10;2.30;;;23.20;52.00;;;;;;216044;1290;25638;-60
2022/05/29 19:37:11;;;;;;;7.60;2.30;;;23.30;52.20;;;;;;216021;1293;25419;-58
2022/05/29 19:42:15;;;;;;;14.20;2.10;;;23.30;52.90;;;;;;216135;1290;25348;-59
2022/05/29 19:47:21;;;;;;;15.10;2.80;;;23.30;52.90;;;;;;215869;1294;25276;-56
2022/05/29 19:52:35;;;;;;;6.80;1.80;;;23.30;52.80;;;;;;216689;1290;24360;-60
2022/05/29 19:57:55;;;;;;;15.30;2.30;;;23.20;52.90;;;;;;216199;1291;22738;-61
2022/05/29 20:03:04;;;;;;;11.20;2.00;;;23.20;52.90;;;;;;216188;1290;25577;-61
2022/05/29 20:08:08;;;;;;;7.50;2.20;;;23.10;52.80;;;;;;216707;1290;22628;-62
2022/05/29 20:13:20;;;;;;;7.20;2.30;;;23.10;52.90;;;;;;215991;1293;26659;-59
2022/05/29 20:18:30;;;;;;;9.50;2.50;;;23.10;56.50;;;;;;216228;1290;25279;-61
2022/05/29 20:23:39;;;;;;;12.10;3.00;;;23.20;56.10;;;;;;216149;1290;23937;-61
2022/05/29 20:28:54;;;;;;;7.30;2.20;;;23.20;55.90;;;;;;216263;1290;22905;-61
2022/05/29 20:34:04;;;;;;;9.70;2.30;;;23.20;55.50;;;;;;216210;1290;26802;-60
2022/05/29 20:39:17;;;;;;;6.70;1.90;;;23.20;55.10;;;;;;216229;1290;23008;-60
2022/05/29 20:44:29;;;;;;;9.00;2.40;;;23.20;55.20;;;;;;216124;1291;22659;-59
2022/05/29 20:49:37;;;;;;;8.90;1.90;;;23.20;55.20;;;;;;216413;1291;22576;-61
2022/05/29 20:54:45;;;;;;;6.80;1.90;;;23.10;55.20;;;;;;216595;1291;22659;-61
2022/05/29 21:00:00;;;;;;;10.60;2.10;;;23.20;59.30;;;;;;216150;1293;22597;-59
2022/05/29 21:05:12;;;;;;;10.20;3.10;;;23.20;59.20;;;;;;216247;1290;24005;-64
2022/05/29 21:10:37;;;;;;;44.40;17.10;;;23.10;57.90;;;;;;216272;1290;22600;-61
2022/05/29 21:15:50;;;;;;;39.30;14.40;;;23.10;57.90;;;;;;216362;1290;25328;-60
2022/05/29 21:21:08;;;;;;;35.90;12.10;;;23.20;57.80;;;;;;216122;1290;24302;-60
2022/05/29 21:26:24;;;;;;;30.30;9.90;;;23.20;57.80;;;;;;216061;1290;25505;-61
2022/05/29 21:31:32;;;;;;;27.50;8.40;;;23.20;57.80;;;;;;216346;1290;24308;-61
2022/05/29 21:36:54;;;;;;;25.50;8.80;;;23.20;57.90;;;;;;216062;1290;22547;-58
2022/05/29 21:42:48;;;;;;;24.70;8.80;;;23.10;58.00;;;;;;216152;1290;24340;-58
2022/05/29 21:48:02;;;;;;;25.30;8.40;;;23.10;57.90;;;;;;216331;1290;26522;-60
2022/05/29 21:53:45;;;;;;;21.50;7.00;;;23.10;58.30;;;;;;215949;1290;25282;-60
2022/05/29 21:59:11;;;;;;;28.70;8.90;;;23.00;58.00;;;;;;216021;1290;22938;-60
2022/05/29 22:04:20;;;;;;;23.80;7.10;;;23.10;58.50;;;;;;216065;1291;26666;-60
2022/05/29 22:09:35;;;;;;;22.00;6.70;;;23.10;58.50;;;;;;215998;1290;24995;-59
2022/05/29 22:14:51;;;;;;;20.60;6.90;;;23.10;58.20;;;;;;216058;1290;24311;-60
2022/05/29 22:20:10;;;;;;;22.30;5.80;;;23.00;58.20;;;;;;216188;1290;24234;-59
2022/05/29 22:25:17;;;;;;;16.60;5.20;;;23.00;58.50;;;;;;216174;1290;25282;-60
2022/05/29 22:30:21;;;;;;;18.60;5.90;;;23.00;57.60;;;;;;216622;1290;25311;-60
2022/05/29 22:35:26;;;;;;;15.30;5.30;;;23.00;58.10;;;;;;215891;1291;24341;-60
2022/05/29 22:40:34;;;;;;;17.40;4.60;;;23.10;58.10;;;;;;216061;1291;22594;-60
2022/05/29 22:45:43;;;;;;;15.20;5.60;;;23.10;58.10;;;;;;216210;1290;22818;-59
2022/05/29 22:50:49;;;;;;;12.70;5.20;;;23.10;58.10;;;;;;216435;1291;22741;-61
2022/05/29 22:55:53;;;;;;;14.50;5.30;;;23.10;58.10;;;;;;216473;1290;22595;-60
2022/05/29 23:00:57;;;;;;;14.10;5.30;;;23.20;58.40;;;;;;216030;1290;22773;-59
2022/05/29 23:06:01;;;;;;;17.20;4.60;;;23.20;58.30;;;;;;223733;1290;23729;-58
2022/05/29 23:11:17;;;;;;;13.50;5.00;;;23.10;58.50;;;;;;217011;1290;23971;-58
2022/05/29 23:16:22;;;;;;;16.40;4.80;;;23.20;58.90;;;;;;222067;1292;22955;-60
2022/05/29 23:21:32;;;;;;;19.80;5.60;;;23.20;58.70;;;;;;216437;1290;22594;-60
2022/05/29 23:26:36;;;;;;;11.90;4.10;;;23.10;58.70;;;;;;220765;1294;24379;-60
2022/05/29 23:31:44;;;;;;;12.00;4.50;;;23.20;58.90;;;;;;216332;1290;22590;-57
2022/05/29 23:36:48;;;;;;;14.90;4.50;;;23.20;59.00;;;;;;219082;1293;26595;-58
2022/05/29 23:47:14;;;;;;;10.20;4.30;;;23.20;59.50;;;;;;216184;1290;25396;-59
2022/05/29 23:52:18;;;;;;;11.30;4.60;;;23.20;59.50;;;;;;215957;1290;25629;-60
2022/05/29 23:57:22;;;;;;;11.60;4.20;;;23.10;59.30;;;;;;216006;1290;22595;-60
